Terminal Aerodrome Forecast
Issued by NWS

Current Version | Previous Version | Text Only | Print | Product List | Glossary On
Versions: 1 2 3 4 5 6 7 8 9 10 11 12 13 14 15 16 17 18 19 20 21 22 23 24
000
FTUS45 KGJT 282328
TAFVEL
TAF
KVEL 282328Z 2900/2924 VRB03KT P6SM SCT200
     FM290100 28005KT P6SM FEW250
     FM291500 VRB03KT P6SM FEW150 BKN200=

USA.gov is the U.S. government's official web portal to all federal, state and local government web resources and services.